Time;durP1;ratioP1;P1;durP2;ratioP2;P2;SDS_P1;SDS_P2;PMS_P1;PMS_P2;Temp;Humidity;BMP_temperature;BMP_pressure;BME280_temperature;BME280_humidity;BME280_pressure;Samples;Min_cycle;Max_cycle;Signal;HPM_P1;HPM_P2
2022/06/07 00:00:34;;;;;;;17.50;7.68;;;12.10;99.90;;;;;;5002032;28;20049;-78
2022/06/07 00:03:00;;;;;;;13.60;7.57;;;12.20;99.90;;;;;;4988692;28;20125;-78
2022/06/07 00:05:27;;;;;;;16.58;7.82;;;12.20;99.90;;;;;;5000785;28;20041;-78
2022/06/07 00:07:54;;;;;;;13.43;7.20;;;12.20;99.90;;;;;;4988703;28;20054;-79
2022/06/07 00:10:21;;;;;;;14.55;7.53;;;12.20;99.90;;;;;;4998700;28;20490;-78
2022/06/07 00:12:47;;;;;;;17.27;7.88;;;12.20;99.90;;;;;;4980947;28;20177;-78
2022/06/07 00:15:12;;;;;;;19.33;7.55;;;12.20;99.90;;;;;;4980245;28;20486;-78
2022/06/07 00:17:38;;;;;;;17.27;7.40;;;12.20;99.90;;;;;;4980008;28;20050;-78
2022/06/07 00:20:08;;;;;;;15.63;7.50;;;12.60;99.90;;;;;;4981049;28;20058;-78
2022/06/07 00:22:34;;;;;;;16.77;7.63;;;12.20;99.90;;;;;;4992804;28;20794;-78
2022/06/07 00:25:00;;;;;;;15.48;7.50;;;12.10;99.90;;;;;;4988042;28;20078;-79
2022/06/07 00:27:26;;;;;;;14.90;7.45;;;12.20;99.90;;;;;;4994462;28;20046;-79
2022/06/07 00:29:51;;;;;;;15.95;8.00;;;12.20;99.90;;;;;;4980246;28;20050;-78
2022/06/07 00:32:19;;;;;;;15.52;7.20;;;12.20;99.90;;;;;;4981516;28;20129;-79
2022/06/07 00:34:45;;;;;;;16.33;8.38;;;12.20;99.90;;;;;;4982277;28;20056;-78
2022/06/07 00:37:11;;;;;;;17.75;8.02;;;12.20;99.90;;;;;;4992313;28;20054;-78
2022/06/07 00:39:37;;;;;;;18.40;8.68;;;12.40;99.90;;;;;;4997038;28;20124;-78
2022/06/07 00:42:03;;;;;;;16.27;7.70;;;12.20;99.90;;;;;;4989966;28;20129;-78
2022/06/07 00:44:34;;;;;;;14.05;7.32;;;12.20;99.90;;;;;;4985580;28;20189;-78
2022/06/07 00:47:11;;;;;;;17.10;7.82;;;12.20;99.90;;;;;;4981620;28;20492;-78
2022/06/07 00:49:46;;;;;;;14.65;8.50;;;12.20;99.90;;;;;;4983273;28;20052;-78
2022/06/07 00:52:13;;;;;;;16.05;8.13;;;12.30;99.90;;;;;;4994992;28;20046;-78
2022/06/07 00:54:40;;;;;;;15.80;8.75;;;12.20;99.90;;;;;;4981865;28;20072;-78
2022/06/07 00:57:06;;;;;;;16.65;8.35;;;12.20;99.90;;;;;;4979870;28;20145;-78
2022/06/07 00:59:33;;;;;;;14.68;8.27;;;12.20;99.90;;;;;;4993451;28;20048;-78
2022/06/07 01:01:58;;;;;;;14.18;8.18;;;12.20;99.90;;;;;;4985313;28;20077;-78
2022/06/07 01:04:27;;;;;;;13.60;7.68;;;12.20;99.90;;;;;;4981638;28;20125;-78
2022/06/07 01:12:26;;;;;;;17.45;9.07;;;12.30;99.90;;;;;;4979412;28;20503;-78
2022/06/07 01:14:51;;;;;;;17.77;9.48;;;12.30;99.90;;;;;;4979263;28;20050;-78
2022/06/07 01:17:19;;;;;;;13.65;9.55;;;12.30;99.90;;;;;;5001008;28;20041;-78
2022/06/07 01:19:45;;;;;;;19.52;9.13;;;12.30;99.90;;;;;;4990480;28;20139;-78
2022/06/07 01:22:11;;;;;;;20.33;10.93;;;12.30;99.90;;;;;;4990096;28;20069;-78
2022/06/07 01:24:37;;;;;;;20.65;11.65;;;12.30;99.90;;;;;;4981430;28;20046;-78
2022/06/07 01:27:04;;;;;;;17.17;9.88;;;12.30;99.90;;;;;;4978717;28;20054;-78
2022/06/07 01:29:30;;;;;;;16.58;10.45;;;12.30;99.90;;;;;;4979777;28;20113;-78
2022/06/07 01:31:56;;;;;;;17.55;11.35;;;12.30;99.90;;;;;;4980585;28;20548;-78
2022/06/07 01:34:22;;;;;;;17.27;10.10;;;12.30;99.90;;;;;;4988740;28;20077;-78
2022/06/07 01:36:47;;;;;;;15.25;10.63;;;12.40;99.90;;;;;;4996031;28;20081;-78
2022/06/07 01:41:57;;;;;;;17.17;10.25;;;12.40;99.90;;;;;;4979970;28;20057;-78
2022/06/07 01:44:30;;;;;;;18.35;9.88;;;12.40;99.90;;;;;;4979060;28;20050;-78
2022/06/07 01:46:58;;;;;;;14.07;9.43;;;12.40;99.90;;;;;;4980434;28;20054;-78
2022/06/07 01:49:24;;;;;;;17.77;10.25;;;12.40;99.90;;;;;;4993294;28;20668;-78
2022/06/07 01:51:54;;;;;;;15.88;9.77;;;12.40;99.90;;;;;;4983083;28;20058;-78
2022/06/07 01:54:23;;;;;;;19.58;10.88;;;12.40;99.90;;;;;;4980688;28;20046;-78
2022/06/07 01:56:49;;;;;;;16.25;10.38;;;12.50;99.90;;;;;;4978707;28;20053;-77
2022/06/07 01:59:16;;;;;;;18.75;10.18;;;12.40;99.90;;;;;;4978851;28;20053;-78
2022/06/07 02:01:42;;;;;;;14.77;8.82;;;12.50;99.90;;;;;;4980067;28;20117;-78
2022/06/07 02:04:11;;;;;;;14.90;9.55;;;12.50;99.90;;;;;;4987961;28;20599;-78
2022/06/07 02:06:38;;;;;;;15.85;9.68;;;12.50;99.90;;;;;;4983478;28;20056;-78
2022/06/07 02:09:07;;;;;;;16.77;9.25;;;12.50;99.90;;;;;;4999153;28;20058;-78
2022/06/07 02:11:34;;;;;;;22.70;8.90;;;12.50;99.90;;;;;;4989614;28;20052;-78
2022/06/07 02:14:00;;;;;;;16.52;8.77;;;12.50;99.90;;;;;;4978512;28;20074;-78
2022/06/07 02:16:26;;;;;;;20.25;10.10;;;12.50;99.90;;;;;;4979447;28;20129;-78
2022/06/07 02:18:52;;;;;;;16.83;9.32;;;12.50;99.90;;;;;;4988198;28;20145;-77
2022/06/07 02:21:19;;;;;;;16.55;8.68;;;12.50;99.90;;;;;;4990795;28;20674;-78
2022/06/07 02:23:47;;;;;;;14.93;8.57;;;12.50;99.90;;;;;;4995798;28;20779;-78
2022/06/07 02:26:39;;;;;;;14.40;8.68;;;12.50;99.90;;;;;;4999239;28;20197;-78
2022/06/07 02:29:14;;;;;;;15.35;8.75;;;12.50;99.90;;;;;;4978793;28;20064;-78
2022/06/07 02:31:48;;;;;;;15.77;8.15;;;12.50;99.90;;;;;;4986529;28;20054;-78
2022/06/07 02:34:15;;;;;;;15.30;9.27;;;12.50;99.90;;;;;;4988302;28;20060;-78
2022/06/07 02:36:43;;;;;;;16.05;9.13;;;12.50;99.90;;;;;;4989693;28;20050;-77
2022/06/07 02:39:09;;;;;;;17.88;8.90;;;12.50;99.90;;;;;;4992477;28;20058;-78
2022/06/07 02:41:35;;;;;;;14.98;8.45;;;12.50;99.90;;;;;;4985311;28;20054;-78
2022/06/07 02:44:01;;;;;;;16.60;9.48;;;12.50;99.90;;;;;;4978725;28;20151;-78
2022/06/07 02:46:27;;;;;;;18.17;8.68;;;12.50;99.90;;;;;;4979684;28;20061;-78
2022/06/07 02:48:53;;;;;;;14.88;8.80;;;12.50;99.90;;;;;;4983805;28;20050;-78
2022/06/07 02:51:21;;;;;;;12.15;8.80;;;12.50;99.90;;;;;;4979121;28;20560;-77
2022/06/07 02:53:46;;;;;;;17.20;8.68;;;12.50;99.90;;;;;;4979417;28;20939;-78
2022/06/07 02:56:12;;;;;;;14.63;7.95;;;12.50;99.90;;;;;;4979727;28;20058;-78
2022/06/07 02:58:38;;;;;;;14.60;8.48;;;12.50;99.90;;;;;;4994656;28;20108;-78
2022/06/07 03:01:03;;;;;;;13.60;8.43;;;12.50;99.90;;;;;;4979225;28;20723;-78
2022/06/07 03:03:29;;;;;;;16.35;9.13;;;12.50;99.90;;;;;;4993659;28;20061;-78
2022/06/07 03:05:56;;;;;;;16.83;8.93;;;12.50;99.90;;;;;;4981021;28;20042;-78
2022/06/07 03:08:22;;;;;;;14.23;8.70;;;12.80;99.90;;;;;;4982165;28;20058;-78
2022/06/07 03:10:49;;;;;;;14.48;8.80;;;12.50;99.90;;;;;;4996386;28;20041;-78
2022/06/07 03:13:17;;;;;;;14.45;8.70;;;12.60;99.90;;;;;;4991479;28;20042;-78
2022/06/07 03:15:43;;;;;;;13.68;8.82;;;12.60;99.90;;;;;;4997317;28;20588;-78
2022/06/07 03:18:10;;;;;;;17.30;9.98;;;12.60;99.90;;;;;;4993514;28;20161;-78
2022/06/07 03:20:37;;;;;;;15.15;8.90;;;12.60;99.90;;;;;;4982713;28;20461;-78
2022/06/07 03:23:03;;;;;;;15.35;10.30;;;12.60;99.90;;;;;;4982969;28;20065;-77
2022/06/07 03:25:29;;;;;;;17.45;10.25;;;12.60;99.90;;;;;;4981461;28;20049;-78
2022/06/07 03:27:54;;;;;;;16.98;10.43;;;12.60;99.90;;;;;;4982119;28;20726;-78
2022/06/07 03:30:20;;;;;;;17.50;11.18;;;12.60;99.90;;;;;;4981399;28;20054;-78
2022/06/07 03:32:46;;;;;;;18.13;10.43;;;12.60;99.90;;;;;;4995829;28;20153;-78
2022/06/07 03:35:14;;;;;;;19.60;10.45;;;12.60;99.90;;;;;;4982567;28;20053;-78
2022/06/07 03:37:41;;;;;;;16.65;10.30;;;12.60;99.90;;;;;;4983289;28;20397;-78
2022/06/07 03:40:09;;;;;;;20.73;11.20;;;12.60;99.90;;;;;;4982315;28;20049;-78
2022/06/07 03:42:35;;;;;;;18.10;10.68;;;12.60;99.90;;;;;;4980983;28;20104;-78
2022/06/07 03:45:00;;;;;;;18.15;10.88;;;13.10;99.90;;;;;;4981237;28;20417;-78
2022/06/07 03:47:26;;;;;;;17.48;10.93;;;12.60;99.90;;;;;;4990907;28;20046;-77
2022/06/07 03:49:52;;;;;;;17.55;10.43;;;12.60;99.90;;;;;;4997911;28;20085;-78
2022/06/07 03:52:18;;;;;;;20.92;10.70;;;12.90;99.90;;;;;;4981517;28;20133;-78
2022/06/07 03:54:44;;;;;;;16.30;10.35;;;12.60;99.90;;;;;;4982465;28;20380;-78
2022/06/07 03:57:11;;;;;;;16.67;10.68;;;12.60;99.90;;;;;;4980910;28;20061;-78
2022/06/07 03:59:37;;;;;;;17.05;10.52;;;12.60;99.90;;;;;;4982449;28;20043;-78
2022/06/07 04:02:04;;;;;;;18.02;10.05;;;12.60;99.90;;;;;;4986086;28;20046;-78
2022/06/07 04:04:30;;;;;;;18.67;10.35;;;12.70;99.90;;;;;;4981489;28;20375;-78
2022/06/07 04:09:41;;;;;;;20.42;11.00;;;12.70;99.90;;;;;;4982042;28;20054;-78
2022/06/07 04:12:08;;;;;;;17.95;10.25;;;12.80;99.90;;;;;;4980426;28;20090;-78
2022/06/07 04:14:39;;;;;;;17.05;10.80;;;12.70;99.90;;;;;;4980822;28;20837;-78
2022/06/07 04:17:05;;;;;;;17.17;10.55;;;12.70;99.90;;;;;;4999625;28;20497;-78
2022/06/07 04:19:34;;;;;;;18.55;10.73;;;12.70;99.90;;;;;;4993517;28;20085;-78
2022/06/07 04:22:00;;;;;;;19.60;11.82;;;12.70;99.90;;;;;;4986974;28;20058;-77
2022/06/07 04:24:25;;;;;;;20.92;10.85;;;12.70;99.90;;;;;;4988209;28;20049;-78
2022/06/07 04:26:51;;;;;;;19.48;11.27;;;12.70;99.90;;;;;;4980401;28;20049;-78
2022/06/07 04:29:17;;;;;;;17.80;10.93;;;12.70;99.90;;;;;;4993508;28;20050;-78
2022/06/07 04:31:45;;;;;;;17.73;10.55;;;12.70;99.90;;;;;;4996307;28;20046;-78
2022/06/07 04:34:11;;;;;;;15.95;11.52;;;12.70;99.90;;;;;;4981861;28;20093;-78
2022/06/07 04:36:37;;;;;;;19.48;11.18;;;12.70;99.90;;;;;;4979783;28;20950;-78
2022/06/07 04:39:05;;;;;;;18.58;11.57;;;12.70;99.90;;;;;;4982293;28;20568;-79
2022/06/07 04:41:33;;;;;;;17.02;10.77;;;12.80;99.90;;;;;;4990243;28;20105;-79
2022/06/07 04:43:59;;;;;;;20.33;11.23;;;12.70;99.90;;;;;;4999361;28;20145;-79
2022/06/07 04:46:26;;;;;;;16.60;11.02;;;12.70;99.90;;;;;;4990249;28;20686;-79
2022/06/07 04:48:54;;;;;;;16.23;11.18;;;12.70;99.90;;;;;;4983872;28;20483;-78
2022/06/07 04:51:30;;;;;;;18.60;11.05;;;12.70;99.90;;;;;;4981070;28;20060;-79
2022/06/07 04:53:57;;;;;;;17.20;11.20;;;12.70;99.90;;;;;;4982782;28;20049;-78
2022/06/07 04:56:29;;;;;;;18.15;11.10;;;12.70;99.90;;;;;;4985187;28;20072;-79
2022/06/07 04:58:56;;;;;;;19.77;10.35;;;12.70;99.90;;;;;;4987777;28;20145;-79
2022/06/07 05:01:32;;;;;;;18.35;10.52;;;12.70;99.90;;;;;;4996405;28;20096;-78
2022/06/07 05:03:58;;;;;;;14.82;9.50;;;12.70;99.90;;;;;;4999259;28;20054;-78
2022/06/07 05:06:25;;;;;;;16.42;9.90;;;12.70;99.90;;;;;;4994334;28;20034;-79
2022/06/07 05:08:58;;;;;;;17.23;10.35;;;12.70;99.90;;;;;;4999909;28;20054;-79
2022/06/07 05:11:24;;;;;;;21.65;11.30;;;12.70;99.90;;;;;;4980686;28;20790;-79
2022/06/07 05:13:59;;;;;;;18.75;11.27;;;12.70;99.90;;;;;;4987539;28;20049;-79
2022/06/07 05:16:26;;;;;;;18.65;11.45;;;12.70;99.90;;;;;;4980185;28;20495;-79
2022/06/07 05:18:53;;;;;;;18.10;11.57;;;12.70;99.90;;;;;;4997352;28;20512;-79
2022/06/07 05:21:20;;;;;;;16.05;11.77;;;12.60;99.90;;;;;;4998900;28;20548;-79
2022/06/07 05:23:45;;;;;;;15.20;10.57;;;12.60;99.90;;;;;;4979634;28;20050;-79
2022/06/07 05:26:20;;;;;;;19.33;11.15;;;12.60;99.90;;;;;;4980276;28;20089;-79
2022/06/07 05:28:45;;;;;;;;;;;12.50;99.90;;;;;;5000483;28;20489;-78
2022/06/07 05:31:11;;;;;;;20.02;11.82;;;12.50;99.90;;;;;;4992864;28;19932;-80
2022/06/07 05:33:37;;;;;;;16.88;10.98;;;12.50;99.90;;;;;;4998402;28;20112;-79
2022/06/07 05:36:04;;;;;;;16.65;9.60;;;12.40;99.90;;;;;;4981102;28;20065;-80
2022/06/07 05:38:30;;;;;;;14.57;8.15;;;12.40;99.90;;;;;;4984587;28;20042;-81
2022/06/07 05:40:56;;;;;;;13.50;8.35;;;12.30;99.90;;;;;;4995813;28;20053;-80
2022/06/07 05:43:22;;;;;;;13.63;7.97;;;12.30;99.90;;;;;;4989005;28;20791;-81
2022/06/07 05:45:49;;;;;;;13.82;7.18;;;12.50;99.90;;;;;;4983780;28;20129;-82
2022/06/07 05:48:15;;;;;;;10.63;7.18;;;12.20;99.90;;;;;;4989630;28;20472;-82
2022/06/07 05:50:43;;;;;;;17.55;8.02;;;12.50;99.90;;;;;;4996780;28;20312;-82
2022/06/07 05:53:10;;;;;;;16.48;7.80;;;12.30;99.90;;;;;;4980639;28;20054;-81
2022/06/07 05:55:35;;;;;;;14.18;7.45;;;12.30;99.90;;;;;;4978284;28;20387;-81
2022/06/07 05:58:01;;;;;;;15.55;7.40;;;12.30;99.90;;;;;;4980326;28;20061;-80
2022/06/07 06:00:36;;;;;;;10.20;5.53;;;12.30;99.90;;;;;;4984681;28;20092;-80
2022/06/07 06:03:02;;;;;;;10.93;5.93;;;12.30;99.90;;;;;;4991171;28;20090;-80
2022/06/07 06:05:28;;;;;;;9.93;4.72;;;12.30;99.90;;;;;;4999630;28;20586;-84
2022/06/07 06:10:39;;;;;;;11.18;5.30;;;12.20;99.90;;;;;;4978936;28;20054;-87
2022/06/07 06:13:05;;;;;;;13.18;4.93;;;12.30;99.90;;;;;;4977963;28;20116;-85
2022/06/07 06:15:31;;;;;;;8.45;4.82;;;12.20;99.90;;;;;;4989097;28;20121;-87
2022/06/07 06:17:56;;;;;;;8.80;3.90;;;12.20;99.90;;;;;;4996462;28;20180;-85
2022/06/07 06:20:23;;;;;;;10.18;4.13;;;12.20;99.90;;;;;;4991740;28;20053;-92
2022/06/07 06:22:49;;;;;;;6.45;3.65;;;12.20;99.90;;;;;;4993691;28;20054;-84
2022/06/07 06:25:14;;;;;;;9.02;3.72;;;12.30;99.90;;;;;;5000341;28;20045;-86
2022/06/07 06:27:41;;;;;;;7.88;3.40;;;12.20;99.90;;;;;;4986167;28;20048;-87
2022/06/07 06:30:08;;;;;;;9.50;3.35;;;12.30;99.90;;;;;;4979282;28;20053;-87
2022/06/07 06:32:33;;;;;;;6.82;2.97;;;12.30;99.90;;;;;;4989887;28;20117;-87
2022/06/07 06:34:59;;;;;;;8.85;3.45;;;12.30;99.90;;;;;;4987844;28;20045;-86
2022/06/07 06:37:27;;;;;;;7.45;3.75;;;12.30;99.90;;;;;;4988872;28;20227;-85
2022/06/07 06:39:53;;;;;;;8.80;3.88;;;12.40;99.90;;;;;;4997153;28;20060;-83
2022/06/07 06:42:19;;;;;;;8.73;3.97;;;12.30;99.90;;;;;;4979874;28;20050;-83
2022/06/07 06:44:46;;;;;;;8.85;4.03;;;12.40;99.90;;;;;;4978248;28;20050;-83
2022/06/07 06:47:13;;;;;;;9.75;4.13;;;12.30;99.90;;;;;;4984223;28;20054;-83
2022/06/07 06:49:41;;;;;;;6.35;3.50;;;12.30;99.90;;;;;;4978107;28;20098;-83
2022/06/07 06:52:10;;;;;;;8.02;3.92;;;12.40;99.90;;;;;;4979220;28;20046;-83
2022/06/07 06:54:36;;;;;;;13.15;4.25;;;12.40;99.90;;;;;;4989882;28;20058;-83
2022/06/07 06:57:02;;;;;;;8.05;4.50;;;12.30;99.90;;;;;;4997094;28;20049;-83
2022/06/07 06:59:28;;;;;;;7.95;3.60;;;12.30;99.90;;;;;;4992971;28;20811;-83
2022/06/07 07:01:54;;;;;;;9.68;4.10;;;12.30;99.90;;;;;;4994594;28;20057;-83
2022/06/07 07:04:20;;;;;;;14.20;4.60;;;12.30;99.90;;;;;;4998962;28;20081;-83
2022/06/07 07:06:48;;;;;;;8.35;3.80;;;12.20;99.90;;;;;;4999664;28;20067;-83
2022/06/07 07:09:17;;;;;;;10.43;4.18;;;12.30;99.90;;;;;;4980249;28;20050;-83
2022/06/07 07:11:46;;;;;;;9.50;4.45;;;12.20;99.90;;;;;;4977246;28;20054;-84
2022/06/07 07:14:12;;;;;;;7.07;3.70;;;12.10;99.90;;;;;;4979773;28;20081;-84
2022/06/07 07:16:41;;;;;;;10.75;3.65;;;12.10;99.90;;;;;;4994674;28;20057;-83
2022/06/07 07:19:08;;;;;;;8.40;3.53;;;12.10;99.90;;;;;;4998407;28;20100;-84
2022/06/07 07:21:37;;;;;;;9.90;2.47;;;12.10;99.90;;;;;;4999201;28;20404;-84
2022/06/07 07:24:05;;;;;;;7.13;2.20;;;12.10;99.90;;;;;;4997365;28;20420;-84
2022/06/07 07:26:32;;;;;;;8.73;2.63;;;12.10;99.90;;;;;;4982140;28;20129;-84
2022/06/07 07:28:58;;;;;;;8.02;2.78;;;12.10;99.90;;;;;;4995754;28;20579;-83
2022/06/07 07:31:27;;;;;;;8.15;2.90;;;12.00;99.90;;;;;;4992079;28;20070;-84
2022/06/07 07:33:53;;;;;;;9.23;2.75;;;12.10;99.90;;;;;;4978609;28;20065;-82
2022/06/07 07:36:19;;;;;;;7.25;2.75;;;12.20;99.90;;;;;;4992135;28;20041;-86
2022/06/07 07:38:45;;;;;;;5.53;2.38;;;12.20;99.90;;;;;;5007159;28;20053;-86
2022/06/07 07:41:27;;;;;;;5.93;2.42;;;12.20;99.90;;;;;;4985290;28;20042;-86
2022/06/07 07:43:55;;;;;;;8.55;2.53;;;12.20;99.90;;;;;;4992060;28;20060;-87
2022/06/07 07:46:22;;;;;;;8.77;2.90;;;12.20;99.90;;;;;;4983791;28;20135;-86
2022/06/07 07:48:48;;;;;;;11.85;2.78;;;12.20;99.90;;;;;;4986846;28;20037;-86
2022/06/07 07:51:20;;;;;;;9.77;2.60;;;12.30;99.90;;;;;;4995515;28;20072;-86
2022/06/07 07:53:47;;;;;;;7.03;1.67;;;12.30;99.90;;;;;;4994601;28;20088;-85
2022/06/07 07:56:13;;;;;;;7.68;1.80;;;12.30;99.90;;;;;;4986828;28;20042;-85
2022/06/07 07:58:39;;;;;;;7.05;1.48;;;12.40;99.90;;;;;;4995621;28;20166;-86
2022/06/07 08:01:11;;;;;;;8.30;1.50;;;12.30;99.90;;;;;;5014695;28;20484;-86
2022/06/07 08:03:40;;;;;;;4.90;1.40;;;12.50;99.90;;;;;;4994798;28;20073;-86
2022/06/07 08:06:07;;;;;;;6.43;1.90;;;12.40;99.90;;;;;;4986301;28;20048;-86
2022/06/07 08:08:33;;;;;;;5.60;2.58;;;12.50;99.90;;;;;;4995090;28;20053;-86
2022/06/07 08:10:59;;;;;;;6.53;2.58;;;12.50;99.90;;;;;;5009695;28;20043;-85
2022/06/07 08:13:25;;;;;;;7.28;2.40;;;12.60;99.90;;;;;;4989124;28;20034;-85
2022/06/07 08:15:50;;;;;;;8.10;2.47;;;12.70;99.90;;;;;;4993612;28;20491;-83
2022/06/07 08:18:16;;;;;;;4.78;1.95;;;12.80;99.90;;;;;;4994097;28;20786;-83
2022/06/07 08:20:41;;;;;;;5.32;1.60;;;12.90;99.90;;;;;;4999902;28;20058;-84
2022/06/07 08:23:08;;;;;;;6.45;1.98;;;12.90;99.90;;;;;;4996890;28;21021;-84
2022/06/07 08:25:35;;;;;;;9.27;2.53;;;12.90;99.90;;;;;;4997184;28;20546;-84
2022/06/07 08:28:02;;;;;;;9.80;2.20;;;12.90;99.90;;;;;;4989247;28;20056;-84
2022/06/07 08:30:28;;;;;;;6.50;2.13;;;13.00;99.90;;;;;;4989926;28;21824;-84
2022/06/07 08:32:54;;;;;;;5.35;2.22;;;13.10;99.90;;;;;;4993685;28;20050;-84
2022/06/07 08:38:05;;;;;;;4.13;1.52;;;13.30;99.90;;;;;;4996507;28;20061;-83
2022/06/07 08:40:35;;;;;;;7.65;1.95;;;13.40;99.90;;;;;;4986188;28;20050;-84
2022/06/07 08:43:13;;;;;;;4.55;1.40;;;13.40;99.90;;;;;;4984466;28;20504;-83
2022/06/07 08:45:42;;;;;;;6.97;1.95;;;13.50;99.90;;;;;;4994009;28;20057;-84
2022/06/07 08:48:19;;;;;;;6.32;1.60;;;13.60;99.90;;;;;;4995894;28;20151;-83
2022/06/07 08:50:50;;;;;;;4.65;1.80;;;13.60;99.90;;;;;;4993198;28;20053;-83
2022/06/07 08:53:24;;;;;;;7.72;1.80;;;13.80;99.90;;;;;;4985915;28;20686;-84
2022/06/07 08:56:01;;;;;;;7.30;2.22;;;13.70;99.90;;;;;;4984774;28;20049;-85
2022/06/07 08:58:29;;;;;;;5.72;1.80;;;13.90;99.90;;;;;;5004066;28;20046;-83
2022/06/07 09:01:07;;;;;;;4.72;1.77;;;14.10;99.90;;;;;;4989791;28;20107;-83
2022/06/07 09:04:02;;;;;;;7.72;2.28;;;14.20;99.90;;;;;;4994956;28;20045;-84
2022/06/07 09:06:32;;;;;;;;;;;14.20;99.90;;;;;;4985345;28;20112;-84
2022/06/07 09:08:59;;;;;;;6.32;2.55;;;14.20;99.90;;;;;;4985929;28;19995;-87
2022/06/07 09:12:09;;;;;;;8.80;2.50;;;14.50;99.90;;;;;;4983219;28;20054;-84
2022/06/07 09:15:03;;;;;;;6.38;2.33;;;14.20;99.90;;;;;;4997664;28;20466;-83
2022/06/07 09:17:46;;;;;;;6.45;2.13;;;14.30;99.90;;;;;;4984352;28;20062;-84
2022/06/07 09:20:36;;;;;;;7.82;1.60;;;14.30;99.90;;;;;;4991335;28;20147;-84
2022/06/07 09:23:15;;;;;;;7.07;1.80;;;14.40;99.90;;;;;;4995479;28;20085;-84
2022/06/07 09:25:48;;;;;;;7.47;1.85;;;14.40;99.90;;;;;;4984977;28;20060;-83
2022/06/07 09:28:27;;;;;;;4.20;1.83;;;14.50;99.90;;;;;;4988882;28;20046;-83
2022/06/07 09:31:04;;;;;;;8.35;1.45;;;14.50;99.90;;;;;;4990702;28;20038;-84
2022/06/07 09:33:52;;;;;;;6.60;1.27;;;14.50;99.90;;;;;;4987954;28;20056;-83
2022/06/07 09:36:25;;;;;;;4.93;1.10;;;14.40;99.90;;;;;;4994017;28;20037;-84
2022/06/07 09:39:17;;;;;;;3.33;1.20;;;14.40;99.90;;;;;;4996899;28;20132;-84
2022/06/07 09:41:58;;;;;;;6.53;1.95;;;14.40;99.90;;;;;;4991650;28;20058;-83
2022/06/07 09:44:33;;;;;;;7.05;1.70;;;14.50;99.90;;;;;;4996477;28;20499;-84
2022/06/07 09:47:03;;;;;;;6.07;1.20;;;14.60;99.90;;;;;;4993723;28;20185;-84
2022/06/07 09:49:28;;;;;;;6.13;1.30;;;14.60;99.90;;;;;;4998695;28;20778;-84
2022/06/07 09:52:02;;;;;;;4.05;1.00;;;14.70;99.90;;;;;;4993450;28;20049;-86
2022/06/07 09:54:27;;;;;;;6.13;1.50;;;14.70;99.90;;;;;;4982716;28;20050;-85
2022/06/07 09:57:07;;;;;;;6.40;1.25;;;14.80;99.90;;;;;;4986845;28;20487;-85
2022/06/07 10:00:17;;;;;;;5.95;1.48;;;15.00;99.90;;;;;;4995319;28;20050;-85
2022/06/07 10:03:25;;;;;;;8.05;1.40;;;15.00;99.90;;;;;;4988081;28;20069;-84
2022/06/07 10:06:15;;;;;;;7.88;1.90;;;15.20;99.90;;;;;;4995671;28;20089;-84
2022/06/07 10:09:00;;;;;;;7.65;1.20;;;15.40;99.90;;;;;;4987325;28;20091;-84
2022/06/07 10:11:49;;;;;;;6.43;1.30;;;15.50;99.90;;;;;;4988331;28;20042;-84
2022/06/07 10:14:26;;;;;;;8.40;1.50;;;15.50;99.90;;;;;;4992654;28;20041;-85
2022/06/07 10:17:16;;;;;;;10.75;1.38;;;15.50;99.90;;;;;;4995039;28;20480;-84
2022/06/07 10:19:54;;;;;;;8.25;1.40;;;15.50;99.90;;;;;;4988979;28;20064;-84
2022/06/07 10:22:36;;;;;;;8.63;1.33;;;15.40;99.90;;;;;;4998561;28;20058;-85
2022/06/07 10:25:49;;;;;;;8.55;1.67;;;15.40;99.90;;;;;;5004540;28;20136;-85
2022/06/07 10:28:31;;;;;;;7.30;1.27;;;15.40;99.90;;;;;;4986459;28;20068;-84
2022/06/07 10:31:18;;;;;;;9.43;1.80;;;15.50;99.90;;;;;;4991097;28;20042;-83
2022/06/07 10:33:55;;;;;;;8.23;1.42;;;15.60;99.90;;;;;;4986739;28;20053;-82
2022/06/07 10:36:40;;;;;;;8.57;1.35;;;15.60;99.90;;;;;;4986986;28;20157;-83
2022/06/07 10:39:24;;;;;;;7.38;1.65;;;15.60;99.90;;;;;;4986397;28;20038;-82
2022/06/07 10:42:05;;;;;;;4.70;1.10;;;15.60;99.90;;;;;;4989372;28;20049;-83
2022/06/07 10:44:49;;;;;;;6.43;1.50;;;15.60;99.90;;;;;;4993011;28;20129;-81
2022/06/07 10:47:27;;;;;;;7.13;1.67;;;15.60;99.90;;;;;;4994929;28;20064;-81
2022/06/07 10:50:01;;;;;;;8.52;1.52;;;15.70;99.90;;;;;;4997183;28;20049;-81
2022/06/07 10:52:41;;;;;;;6.35;1.15;;;15.80;99.90;;;;;;4997065;28;20061;-81
2022/06/07 10:55:24;;;;;;;7.30;1.38;;;15.70;99.90;;;;;;4984939;28;20125;-81
2022/06/07 10:57:56;;;;;;;9.73;1.65;;;15.70;99.90;;;;;;4975925;28;20058;-81
2022/06/07 11:00:43;;;;;;;10.25;1.70;;;15.60;99.90;;;;;;4982864;28;20042;-81
2022/06/07 11:03:36;;;;;;;6.70;1.20;;;15.60;99.90;;;;;;4989093;28;20047;-81
2022/06/07 11:09:20;;;;;;;5.95;1.73;;;15.80;99.90;;;;;;4979662;28;20093;-81
2022/06/07 11:11:48;;;;;;;5.25;1.42;;;16.10;99.90;;;;;;4979458;28;20108;-81
2022/06/07 11:14:16;;;;;;;5.95;1.40;;;16.50;99.90;;;;;;4979629;28;20058;-80
2022/06/07 11:16:59;;;;;;;9.90;1.77;;;16.60;99.90;;;;;;4994852;28;20057;-80
2022/06/07 11:19:25;;;;;;;8.48;1.08;;;16.80;99.90;;;;;;4981103;28;20157;-81
2022/06/07 11:21:56;;;;;;;8.00;1.55;;;16.80;99.90;;;;;;4979998;28;20092;-80
2022/06/07 11:24:34;;;;;;;7.88;1.48;;;16.90;99.90;;;;;;4981770;28;20057;-81
2022/06/07 11:27:17;;;;;;;7.97;1.27;;;17.10;99.90;;;;;;4998871;28;20048;-82
2022/06/07 11:29:43;;;;;;;9.05;1.25;;;17.10;99.90;;;;;;5002711;28;20069;-82
2022/06/07 11:32:38;;;;;;;7.90;1.40;;;17.00;99.90;;;;;;4999245;28;20797;-80
2022/06/07 11:35:41;;;;;;;8.15;1.38;;;17.00;99.90;;;;;;4997508;28;20042;-81
2022/06/07 11:38:19;;;;;;;8.73;1.45;;;17.00;99.90;;;;;;5000442;28;20160;-81
2022/06/07 11:40:46;;;;;;;7.88;1.55;;;16.90;99.90;;;;;;5000353;28;20054;-81
2022/06/07 11:43:49;;;;;;;9.82;1.88;;;16.70;99.90;;;;;;5001532;28;20050;-81
2022/06/07 11:46:36;;;;;;;12.02;1.70;;;16.60;99.90;;;;;;4995700;28;20053;-81
2022/06/07 11:49:17;;;;;;;9.52;1.63;;;16.50;99.90;;;;;;4997367;28;20045;-80
2022/06/07 11:51:54;;;;;;;6.97;1.50;;;16.40;99.90;;;;;;4998933;28;20507;-82
2022/06/07 11:54:28;;;;;;;7.18;1.40;;;16.30;99.90;;;;;;5001995;28;20639;-81
2022/06/07 11:56:57;;;;;;;8.77;1.48;;;16.30;99.90;;;;;;5000639;28;20057;-82
2022/06/07 11:59:22;;;;;;;6.15;1.52;;;16.10;99.90;;;;;;4999694;28;20133;-82
2022/06/07 12:02:20;;;;;;;9.48;2.03;;;16.00;99.90;;;;;;5001846;28;20072;-82
2022/06/07 12:04:47;;;;;;;6.60;1.67;;;15.90;99.90;;;;;;5001033;28;20041;-82
2022/06/07 12:07:24;;;;;;;7.43;1.70;;;15.80;99.90;;;;;;4989586;28;20061;-82
2022/06/07 12:09:52;;;;;;;6.75;1.38;;;15.80;99.90;;;;;;4994431;28;20049;-83
2022/06/07 12:12:34;;;;;;;8.25;1.33;;;15.90;99.90;;;;;;4989271;28;20042;-83
2022/06/07 12:15:09;;;;;;;6.15;1.70;;;16.20;99.90;;;;;;4980197;28;20085;-82
2022/06/07 12:17:35;;;;;;;6.45;1.40;;;16.50;99.90;;;;;;4982931;28;20481;-82
2022/06/07 12:20:00;;;;;;;11.88;1.60;;;16.70;99.90;;;;;;4981787;28;20070;-82
2022/06/07 12:22:40;;;;;;;9.68;1.58;;;16.70;99.90;;;;;;4996592;28;20073;-81
2022/06/07 12:25:18;;;;;;;5.13;1.67;;;16.70;99.90;;;;;;4994284;28;20046;-81
2022/06/07 12:27:47;;;;;;;9.07;1.52;;;16.80;99.90;;;;;;5001643;28;20663;-83
2022/06/07 12:30:30;;;;;;;8.07;1.73;;;16.80;99.90;;;;;;4994564;28;20050;-81
2022/06/07 12:33:12;;;;;;;8.73;1.58;;;16.90;99.90;;;;;;5000373;28;20492;-81
2022/06/07 12:35:51;;;;;;;7.78;1.30;;;16.90;99.90;;;;;;5001770;28;20547;-83
2022/06/07 12:38:17;;;;;;;9.68;1.73;;;16.90;99.90;;;;;;4998727;28;20053;-83
2022/06/07 12:40:50;;;;;;;8.20;1.60;;;17.00;99.90;;;;;;5001540;28;20050;-82
2022/06/07 12:43:19;;;;;;;8.88;1.95;;;16.90;99.90;;;;;;4983885;28;20506;-82
2022/06/07 12:45:55;;;;;;;10.30;1.70;;;16.80;99.90;;;;;;4981026;28;20159;-81
2022/06/07 12:48:20;;;;;;;7.43;1.60;;;16.80;99.90;;;;;;4982139;28;20065;-80
2022/06/07 12:50:47;;;;;;;12.80;1.48;;;16.70;99.90;;;;;;4993649;28;20042;-81
2022/06/07 12:53:28;;;;;;;7.25;2.08;;;16.60;99.90;;;;;;5000676;28;20046;-80
2022/06/07 12:56:03;;;;;;;6.93;2.00;;;16.50;99.90;;;;;;4999985;28;20115;-81
2022/06/07 12:58:33;;;;;;;9.90;2.47;;;16.60;99.90;;;;;;4991311;28;20049;-81
2022/06/07 13:00:59;;;;;;;5.38;1.50;;;16.80;99.90;;;;;;4993108;28;20843;-81
2022/06/07 13:03:37;;;;;;;7.85;1.48;;;17.00;99.90;;;;;;4978091;28;20053;-81
2022/06/07 13:06:18;;;;;;;7.43;1.42;;;17.10;99.90;;;;;;4981109;28;20501;-80
2022/06/07 13:08:57;;;;;;;6.43;1.67;;;17.30;99.90;;;;;;4992007;28;20068;-80
2022/06/07 13:11:23;;;;;;;5.18;1.40;;;17.50;99.90;;;;;;5000157;28;20084;-81
2022/06/07 13:13:51;;;;;;;9.07;1.73;;;17.60;99.90;;;;;;4994877;28;20771;-81
2022/06/07 13:16:20;;;;;;;5.97;1.70;;;17.50;99.90;;;;;;4998970;28;20056;-81
2022/06/07 13:19:08;;;;;;;7.68;1.55;;;17.50;99.90;;;;;;4999842;28;20054;-81